Westgard — PDBQ — position and weather

sailwx.info

Track history (hours):
 
Tides and Currents Weather Stations Pressure Air Temp Water Temp Dewpoint Dewpoint Depression Visibility Wind Speed Wind Dir Waves Ship Positions

Westgard

Last reported at 2014-Oct-25 12:30 UTC. Time now 2014-Oct-25 13:31 UTC.
Position N 54°25' E 012°10'.

Length 89 m; draft 5.3 m.

Type: Ship. MMSI: 246457000.

Date/timePositionNaut miles runAvg speedWind from/ knotsBaromVisibWave heightAir tempDewpointWater temp
2014-Oct-25 12:30N 54°25' E 012°10'1111.5
2014-Oct-25 11:33N 54°25' E 011°51'3711.3
2014-Oct-25 08:19N 54°32' E 010°49'911.4
2014-Oct-25 07:33N 54°30' E 010°34'1111.2
2014-Oct-25 06:33N 54°27' E 010°16'7 6.5
2014-Oct-25 05:33N 54°22' E 010°09'4 3.6
2014-Oct-25 04:33N 54°22' E 010°02'7 6.9
2014-Oct-25 03:33N 54°22' E 009°51'8 7.8
2014-Oct-25 02:32N 54°17' E 009°39'27 6.8
2014-Oct-24 22:32N 53°55' E 009°12'4 4.0
2014-Oct-24 21:32N 53°53' E 009°06'10 9.8
2014-Oct-24 20:33N 53°50' E 008°51'8 8.3
2014-Oct-24 19:33N 53°55' E 008°40'9 8.6
2014-Oct-24 18:32N 53°59' E 008°26'79 9.9
2014-Oct-24 10:33N 53°42' E 006°14'1111.3
2014-Oct-24 09:33N 53°39' E 005°56'1211.8
2014-Oct-24 08:33N 53°35' E 005°37'1212.3
2014-Oct-24 07:33N 53°31' E 005°18'1212.4
2014-Oct-24 06:33N 53°27' E 004°58'3712.0
2014-Oct-24 03:29N 52°58' E 004°19'1212.3
2014-Oct-24 02:33N 52°48' E 004°10'1212.2
2014-Oct-24 01:32N 52°39' E 003°57'1211.8
2014-Oct-24 00:33N 52°30' E 003°43'1111.0
2014-Oct-23 23:33N 52°22' E 003°31'1010.3
2014-Oct-23 22:33N 52°15' E 003°20'10 9.8
2014-Oct-23 21:32N 52°08' E 003°09'9 9.1
2014-Oct-23 20:32N 52°01' E 002°59'9 9.3
2014-Oct-23 19:33N 51°54' E 002°49'3310.5
2014-Oct-23 16:24N 51°28' E 002°15'1112.0
2014-Oct-23 15:31N 51°19' E 002°07'1212.4
2014-Oct-23 14:33N 51°10' E 001°54'1313.1
2014-Oct-23 13:32N 51°01' E 001°39'17910.9
2014-Oct-22 21:09N 50°13' W 002°53'711.8
2014-Oct-22 20:33N 50°12' W 003°04'1212.0
2014-Oct-22 19:33N 50°12' W 003°23'3110.2
2014-Oct-22 16:33N 50°21' W 004°09'1 0.9
2014-Oct-22 15:32N 50°22' W 004°08'0 0.0
2014-Oct-22 14:32N 50°22' W 004°08'0 0.0
2014-Oct-22 13:32N 50°22' W 004°08'0 0.0
2014-Oct-22 12:32N 50°22' W 004°08'0 0.0
2014-Oct-22 11:32N 50°22' W 004°08'0 0.0
2014-Oct-22 10:32N 50°22' W 004°08'0 0.0
2014-Oct-22 09:32N 50°22' W 004°08'0 0.0
2014-Oct-22 08:32N 50°22' W 004°08'0 0.0
2014-Oct-22 07:32N 50°22' W 004°08'0 0.0
2014-Oct-22 06:32N 50°22' W 004°08'0 0.0
2014-Oct-22 05:32N 50°22' W 004°08'19 1.2
2014-Oct-21 13:09N 50°11' W 003°42'4 6.4
2014-Oct-21 12:33N 50°13' W 003°37'10 9.9
2014-Oct-21 11:34N 50°18' W 003°23'10 9.8
2014-Oct-21 10:33N 50°21' W 003°09'9 8.7
2014-Oct-21 09:33N 50°22' W 002°55'7 7.0
2014-Oct-21 08:33N 50°20' W 002°45'94 8.2
2014-Oct-20 21:08N 49°35' W 000°36'711.7
2014-Oct-20 20:33N 49°33' W 000°27'1111.1
2014-Oct-20 19:33N 49°30' W 000°10'1110.7
2014-Oct-20 18:33N 49°26' E 000°05'6 5.1
2014-Oct-20 17:23N 49°26' E 000°14'0 0.0
2014-Oct-20 16:17N 49°26' E 000°14'0 0.0
2014-Oct-20 15:23N 49°26' E 000°14'0 0.0
2014-Oct-20 13:29N 49°26' E 000°14'0 0.0
2014-Oct-20 12:17N 49°26' E 000°14'0 0.0
2014-Oct-20 11:14N 49°26' E 000°14'0 0.0
2014-Oct-20 08:29N 49°26' E 000°14'0 0.0
2014-Oct-20 07:17N 49°26' E 000°14'0 0.0
2014-Oct-20 06:29N 49°26' E 000°14'0 0.0
2014-Oct-20 05:32N 49°26' E 000°14'0 0.0
2014-Oct-20 04:29N 49°26' E 000°14'0 0.0
2014-Oct-20 03:29N 49°26' E 000°14'0 0.0
2014-Oct-20 02:29N 49°26' E 000°14'0 0.0
2014-Oct-20 00:20N 49°26' E 000°14'0 0.0
2014-Oct-19 23:29N 49°26' E 000°14'0 0.0
2014-Oct-19 22:11N 49°26' E 000°14'0 0.0
2014-Oct-19 21:29N 49°26' E 000°14'0 0.0
2014-Oct-19 20:23N 49°26' E 000°14'0 0.0
2014-Oct-19 19:23N 49°26' E 000°14'0 0.0
2014-Oct-19 18:32N 49°26' E 000°14'0 0.0
2014-Oct-19 17:23N 49°26' E 000°14'0 0.0
2014-Oct-19 16:33N 49°26' E 000°14'0 0.0
2014-Oct-19 15:33N 49°26' E 000°14'9 8.7
2014-Oct-19 14:33N 49°27' E 000°01'4 4.0
2014-Oct-19 13:33N 49°31' W 000°01'8 8.1
2014-Oct-19 12:33N 49°39' E 000°03'91 8.7
2014-Oct-19 02:07N 50°56' E 001°20'610.9
2014-Oct-19 01:33N 50°60' E 001°27'10 9.9
2014-Oct-19 00:33N 51°07' E 001°38'9 9.2
2014-Oct-18 23:34N 51°14' E 001°47'8 8.3
2014-Oct-18 22:33N 51°21' E 001°53'8 8.2
2014-Oct-18 21:33N 51°28' E 002°01'9 8.8
2014-Oct-18 20:33N 51°35' E 002°10'13310.1
2014-Oct-18 07:18N 53°18' E 004°29'1310.6
2014-Oct-18 06:03N 53°28' E 004°43'611.2
2014-Oct-18 05:33N 53°30' E 004°51'1110.9
2014-Oct-18 04:33N 53°35' E 005°08'1010.3
2014-Oct-18 03:33N 53°38' E 005°25'1010.0
2014-Oct-18 02:33N 53°41' E 005°41'1210.0
2014-Oct-18 01:22N 53°45' E 005°60'5511.2
2014-Oct-17 20:24N 53°59' E 007°31'1011.3
2014-Oct-17 19:33N 54°01' E 007°46'1111.2
2014-Oct-17 18:33N 54°01' E 008°06'1110.9
2014-Oct-17 17:33N 53°59' E 008°24'10 9.7
2014-Oct-17 16:33N 53°56' E 008°40'9 8.7
2014-Oct-17 15:33N 53°51' E 008°51'1110.6
2014-Oct-17 14:33N 53°53' E 009°08'21 6.8
2014-Oct-17 11:27N 54°11' E 009°28'9 7.7
2014-Oct-17 10:15N 54°17' E 009°39'3 3.8
2014-Oct-17 09:26N 54°19' E 009°43'4 4.0
2014-Oct-17 08:33N 54°22' E 009°48'8 7.8
2014-Oct-17 07:33N 54°22' E 010°01'4 3.9
2014-Oct-17 06:33N 54°22' E 010°08'9 2.5
2014-Oct-17 03:09N 54°29' E 010°16'4011.2
2014-Oct-16 23:32N 54°32' E 011°26'1110.3
2014-Oct-16 22:30N 54°29' E 011°43'1111.5
2014-Oct-16 21:33N 54°27' E 012°02'9810.9
2014-Oct-16 12:33N 55°19' E 014°26'1311.1
2014-Oct-16 11:21N 55°28' E 014°43'5611.3
2014-Oct-16 06:23N 55°57' E 016°09'  
Track history (hours):
 
Tides and Currents Weather Stations Pressure Air Temp Water Temp Dewpoint Dewpoint Depression Visibility Wind Speed Wind Dir Waves Ship Positions

Westgard

Last reported at 2014-Oct-25 12:30 UTC. Time now 2014-Oct-25 13:31 UTC.
Position N 54°25' E 012°10'.

Length 89 m; draft 5.3 m.

Type: Ship. MMSI: 246457000.

Date/timePositionNaut miles runAvg speedWind from/ knotsBaromVisibWave heightAir tempDewpointWater temp
2014-Oct-25 12:30N 54°25' E 012°10'1111.5
2014-Oct-25 11:33N 54°25' E 011°51'3711.3
2014-Oct-25 08:19N 54°32' E 010°49'911.4
2014-Oct-25 07:33N 54°30' E 010°34'1111.2
2014-Oct-25 06:33N 54°27' E 010°16'7 6.5
2014-Oct-25 05:33N 54°22' E 010°09'4 3.6
2014-Oct-25 04:33N 54°22' E 010°02'7 6.9
2014-Oct-25 03:33N 54°22' E 009°51'8 7.8
2014-Oct-25 02:32N 54°17' E 009°39'27 6.8
2014-Oct-24 22:32N 53°55' E 009°12'4 4.0
2014-Oct-24 21:32N 53°53' E 009°06'10 9.8
2014-Oct-24 20:33N 53°50' E 008°51'8 8.3
2014-Oct-24 19:33N 53°55' E 008°40'9 8.6
2014-Oct-24 18:32N 53°59' E 008°26'79 9.9
2014-Oct-24 10:33N 53°42' E 006°14'1111.3
2014-Oct-24 09:33N 53°39' E 005°56'1211.8
2014-Oct-24 08:33N 53°35' E 005°37'1212.3
2014-Oct-24 07:33N 53°31' E 005°18'1212.4
2014-Oct-24 06:33N 53°27' E 004°58'3712.0
2014-Oct-24 03:29N 52°58' E 004°19'1212.3
2014-Oct-24 02:33N 52°48' E 004°10'1212.2
2014-Oct-24 01:32N 52°39' E 003°57'1211.8
2014-Oct-24 00:33N 52°30' E 003°43'1111.0
2014-Oct-23 23:33N 52°22' E 003°31'1010.3
2014-Oct-23 22:33N 52°15' E 003°20'10 9.8
2014-Oct-23 21:32N 52°08' E 003°09'9 9.1
2014-Oct-23 20:32N 52°01' E 002°59'9 9.3
2014-Oct-23 19:33N 51°54' E 002°49'3310.5
2014-Oct-23 16:24N 51°28' E 002°15'1112.0
2014-Oct-23 15:31N 51°19' E 002°07'1212.4
2014-Oct-23 14:33N 51°10' E 001°54'1313.1
2014-Oct-23 13:32N 51°01' E 001°39'17910.9
2014-Oct-22 21:09N 50°13' W 002°53'711.8
2014-Oct-22 20:33N 50°12' W 003°04'1212.0
2014-Oct-22 19:33N 50°12' W 003°23'3110.2
2014-Oct-22 16:33N 50°21' W 004°09'1 0.9
2014-Oct-22 15:32N 50°22' W 004°08'0 0.0
2014-Oct-22 14:32N 50°22' W 004°08'0 0.0
2014-Oct-22 13:32N 50°22' W 004°08'0 0.0
2014-Oct-22 12:32N 50°22' W 004°08'0 0.0
2014-Oct-22 11:32N 50°22' W 004°08'0 0.0
2014-Oct-22 10:32N 50°22' W 004°08'0 0.0
2014-Oct-22 09:32N 50°22' W 004°08'0 0.0
2014-Oct-22 08:32N 50°22' W 004°08'0 0.0
2014-Oct-22 07:32N 50°22' W 004°08'0 0.0
2014-Oct-22 06:32N 50°22' W 004°08'0 0.0
2014-Oct-22 05:32N 50°22' W 004°08'19 1.2
2014-Oct-21 13:09N 50°11' W 003°42'4 6.4
2014-Oct-21 12:33N 50°13' W 003°37'10 9.9
2014-Oct-21 11:34N 50°18' W 003°23'10 9.8
2014-Oct-21 10:33N 50°21' W 003°09'9 8.7
2014-Oct-21 09:33N 50°22' W 002°55'7 7.0
2014-Oct-21 08:33N 50°20' W 002°45'94 8.2
2014-Oct-20 21:08N 49°35' W 000°36'711.7
2014-Oct-20 20:33N 49°33' W 000°27'1111.1
2014-Oct-20 19:33N 49°30' W 000°10'1110.7
2014-Oct-20 18:33N 49°26' E 000°05'6 5.1
2014-Oct-20 17:23N 49°26' E 000°14'0 0.0
2014-Oct-20 16:17N 49°26' E 000°14'0 0.0
2014-Oct-20 15:23N 49°26' E 000°14'0 0.0
2014-Oct-20 13:29N 49°26' E 000°14'0 0.0
2014-Oct-20 12:17N 49°26' E 000°14'0 0.0
2014-Oct-20 11:14N 49°26' E 000°14'0 0.0
2014-Oct-20 08:29N 49°26' E 000°14'0 0.0
2014-Oct-20 07:17N 49°26' E 000°14'0 0.0
2014-Oct-20 06:29N 49°26' E 000°14'0 0.0
2014-Oct-20 05:32N 49°26' E 000°14'0 0.0
2014-Oct-20 04:29N 49°26' E 000°14'0 0.0
2014-Oct-20 03:29N 49°26' E 000°14'0 0.0
2014-Oct-20 02:29N 49°26' E 000°14'0 0.0
2014-Oct-20 00:20N 49°26' E 000°14'0 0.0
2014-Oct-19 23:29N 49°26' E 000°14'0 0.0
2014-Oct-19 22:11N 49°26' E 000°14'0 0.0
2014-Oct-19 21:29N 49°26' E 000°14'0 0.0
2014-Oct-19 20:23N 49°26' E 000°14'0 0.0
2014-Oct-19 19:23N 49°26' E 000°14'0 0.0
2014-Oct-19 18:32N 49°26' E 000°14'0 0.0
2014-Oct-19 17:23N 49°26' E 000°14'0 0.0
2014-Oct-19 16:33N 49°26' E 000°14'0 0.0
2014-Oct-19 15:33N 49°26' E 000°14'9 8.7
2014-Oct-19 14:33N 49°27' E 000°01'4 4.0
2014-Oct-19 13:33N 49°31' W 000°01'8 8.1
2014-Oct-19 12:33N 49°39' E 000°03'91 8.7
2014-Oct-19 02:07N 50°56' E 001°20'610.9
2014-Oct-19 01:33N 50°60' E 001°27'10 9.9
2014-Oct-19 00:33N 51°07' E 001°38'9 9.2
2014-Oct-18 23:34N 51°14' E 001°47'8 8.3
2014-Oct-18 22:33N 51°21' E 001°53'8 8.2
2014-Oct-18 21:33N 51°28' E 002°01'9 8.8
2014-Oct-18 20:33N 51°35' E 002°10'13310.1
2014-Oct-18 07:18N 53°18' E 004°29'1310.6
2014-Oct-18 06:03N 53°28' E 004°43'611.2
2014-Oct-18 05:33N 53°30' E 004°51'1110.9
2014-Oct-18 04:33N 53°35' E 005°08'1010.3
2014-Oct-18 03:33N 53°38' E 005°25'1010.0
2014-Oct-18 02:33N 53°41' E 005°41'1210.0
2014-Oct-18 01:22N 53°45' E 005°60'5511.2
2014-Oct-17 20:24N 53°59' E 007°31'1011.3
2014-Oct-17 19:33N 54°01' E 007°46'1111.2
2014-Oct-17 18:33N 54°01' E 008°06'1110.9
2014-Oct-17 17:33N 53°59' E 008°24'10 9.7
2014-Oct-17 16:33N 53°56' E 008°40'9 8.7
2014-Oct-17 15:33N 53°51' E 008°51'1110.6
2014-Oct-17 14:33N 53°53' E 009°08'21 6.8
2014-Oct-17 11:27N 54°11' E 009°28'9 7.7
2014-Oct-17 10:15N 54°17' E 009°39'3 3.8
2014-Oct-17 09:26N 54°19' E 009°43'4 4.0
2014-Oct-17 08:33N 54°22' E 009°48'8 7.8
2014-Oct-17 07:33N 54°22' E 010°01'4 3.9
2014-Oct-17 06:33N 54°22' E 010°08'9 2.5
2014-Oct-17 03:09N 54°29' E 010°16'4011.2
2014-Oct-16 23:32N 54°32' E 011°26'1110.3
2014-Oct-16 22:30N 54°29' E 011°43'1111.5
2014-Oct-16 21:33N 54°27' E 012°02'9810.9
2014-Oct-16 12:33N 55°19' E 014°26'1311.1
2014-Oct-16 11:21N 55°28' E 014°43'5611.3
2014-Oct-16 06:23N 55°57' E 016°09'  

Dump ship's entire track history